createdAt,value
2018-06-25T00:00:06.994Z,17.7
2018-06-25T00:01:06.736Z,17.67
2018-06-25T00:02:06.710Z,17.65
2018-06-25T00:03:06.723Z,17.74
2018-06-25T00:04:07.018Z,17.74
2018-06-25T00:05:06.716Z,17.68
2018-06-25T00:06:07.009Z,17.7
2018-06-25T00:07:06.506Z,17.7
2018-06-25T00:08:06.721Z,17.71
2018-06-25T00:09:06.705Z,17.63
2018-06-25T00:10:06.472Z,17.59
2018-06-25T00:11:06.960Z,17.65
2018-06-25T00:12:06.714Z,17.63
2018-06-25T00:13:06.484Z,17.63
2018-06-25T00:14:06.968Z,17.6
2018-06-25T00:15:06.718Z,17.54
2018-06-25T00:16:06.713Z,17.57
2018-06-25T00:17:06.744Z,17.64
2018-06-25T00:18:06.713Z,17.59
2018-06-25T00:19:06.718Z,17.56
2018-06-25T00:20:06.459Z,17.63
2018-06-25T00:21:06.960Z,17.6
2018-06-25T00:22:06.719Z,17.64
2018-06-25T00:23:06.724Z,17.63
2018-06-25T00:24:06.714Z,17.57
2018-06-25T00:25:06.470Z,17.6
2018-06-25T00:26:07.014Z,17.48
2018-06-25T00:27:06.998Z,17.54
2018-06-25T00:28:06.728Z,17.57
2018-06-25T00:29:06.456Z,17.6
2018-06-25T00:30:07.020Z,17.56
2018-06-25T00:31:06.446Z,17.6
2018-06-25T00:32:06.703Z,17.52
2018-06-25T00:33:06.957Z,17.63
2018-06-25T00:34:06.700Z,17.59
2018-06-25T00:35:06.694Z,17.65
2018-06-25T00:36:06.701Z,17.56
2018-06-25T00:37:06.970Z,17.54
2018-06-25T00:38:06.962Z,17.54
2018-06-25T00:39:06.474Z,17.57
2018-06-25T00:40:06.712Z,17.48
2018-06-25T00:41:06.728Z,17.48
2018-06-25T00:42:06.760Z,17.51
2018-06-25T00:43:06.726Z,17.51
2018-06-25T00:44:06.707Z,17.52
2018-06-25T00:45:06.720Z,17.48
2018-06-25T00:46:06.762Z,17.48
2018-06-25T00:47:06.734Z,17.54
2018-06-25T00:48:06.964Z,17.39
2018-06-25T00:49:06.466Z,17.44
2018-06-25T00:50:06.470Z,17.42
2018-06-25T00:51:06.715Z,17.39
2018-06-25T00:52:06.460Z,17.48
2018-06-25T00:53:06.453Z,17.42
2018-06-25T00:54:06.707Z,17.41
2018-06-25T00:55:06.962Z,17.41
2018-06-25T00:56:06.722Z,17.38
2018-06-25T00:57:06.710Z,17.33
2018-06-25T00:58:06.705Z,17.46
2018-06-25T00:59:06.971Z,17.42
2018-06-25T01:00:06.710Z,17.38
2018-06-25T01:01:06.972Z,17.33
2018-06-25T01:02:06.714Z,17.34
2018-06-25T01:03:06.731Z,17.38
2018-06-25T01:04:06.963Z,17.41
2018-06-25T01:05:06.714Z,17.44
2018-06-25T01:06:07.271Z,17.31
2018-06-25T01:07:06.958Z,17.36
2018-06-25T01:08:06.708Z,17.39
2018-06-25T01:09:06.707Z,17.36
2018-06-25T01:10:06.465Z,17.33
2018-06-25T01:11:06.977Z,17.36
2018-06-25T01:12:06.964Z,17.33
2018-06-25T01:13:06.475Z,17.36
2018-06-25T01:14:06.731Z,17.39
2018-06-25T01:15:06.967Z,17.26
2018-06-25T01:16:06.960Z,17.36
2018-06-25T01:17:06.460Z,17.15
2018-06-25T01:18:06.968Z,17.26
2018-06-25T01:19:06.706Z,17.3
2018-06-25T01:20:06.461Z,17.23
2018-06-25T01:21:06.710Z,17.2
2018-06-25T01:22:06.708Z,17.2
2018-06-25T01:23:06.705Z,17.27
2018-06-25T01:24:06.709Z,17.22
2018-06-25T01:25:06.963Z,17.15
2018-06-25T01:26:06.712Z,17.2
2018-06-25T01:27:06.962Z,17.11
2018-06-25T01:28:09.154Z,17.15
2018-06-25T01:29:06.721Z,17.12
2018-06-25T01:30:06.469Z,17.16
2018-06-25T01:31:06.469Z,17.14
2018-06-25T01:32:06.714Z,17.09
2018-06-25T01:33:06.966Z,17.11
2018-06-25T01:34:06.465Z,17.2
2018-06-25T01:35:06.462Z,17.14
2018-06-25T01:36:06.713Z,17.2
2018-06-25T01:37:06.951Z,17.12
2018-06-25T01:38:06.965Z,17.12
2018-06-25T01:39:06.722Z,17.05
2018-06-25T01:40:06.962Z,17.05
2018-06-25T01:41:06.967Z,17.06
2018-06-25T01:42:06.718Z,16.97
2018-06-25T01:43:07.318Z,16.94
2018-06-25T01:44:06.719Z,16.94
2018-06-25T01:45:06.967Z,16.96
2018-06-25T01:46:06.467Z,16.97
2018-06-25T01:47:06.708Z,16.93
2018-06-25T01:48:06.971Z,16.97
2018-06-25T01:49:06.707Z,16.94
2018-06-25T01:50:06.964Z,16.96
2018-06-25T01:51:06.463Z,16.93
2018-06-25T01:52:06.712Z,16.94
2018-06-25T01:53:06.708Z,16.89
2018-06-25T01:54:06.719Z,16.97
2018-06-25T01:55:06.702Z,16.94
2018-06-25T01:56:06.448Z,16.96
2018-06-25T01:57:06.955Z,16.99
2018-06-25T01:58:06.704Z,16.9
2018-06-25T01:59:06.703Z,16.89
2018-06-25T02:00:06.725Z,16.9
2018-06-25T02:01:06.711Z,16.89
2018-06-25T02:02:06.448Z,16.83
2018-06-25T02:03:06.455Z,16.81
2018-06-25T02:04:06.959Z,16.79
2018-06-25T02:05:06.966Z,16.76
2018-06-25T02:06:06.957Z,16.75
2018-06-25T02:07:06.455Z,16.79
2018-06-25T02:08:06.698Z,16.71
2018-06-25T02:09:06.451Z,16.79
2018-06-25T02:10:06.443Z,16.75
2018-06-25T02:11:06.967Z,16.74
2018-06-25T02:12:06.691Z,16.83
2018-06-25T02:13:07.017Z,16.75
2018-06-25T02:14:06.713Z,16.76
2018-06-25T02:15:06.444Z,16.71
2018-06-25T02:16:06.964Z,16.75
2018-06-25T02:17:06.698Z,16.78
2018-06-25T02:18:06.962Z,16.87
2018-06-25T02:19:07.014Z,16.75
2018-06-25T02:20:06.985Z,16.72
2018-06-25T02:21:06.441Z,16.78
2018-06-25T02:22:06.689Z,16.78
2018-06-25T02:23:06.691Z,16.76
2018-06-25T02:24:07.003Z,16.76
2018-06-25T02:25:06.435Z,16.78
2018-06-25T02:26:06.701Z,16.74
2018-06-25T02:27:06.706Z,16.76
2018-06-25T02:28:06.687Z,16.81
2018-06-25T02:29:06.451Z,16.69
2018-06-25T02:30:06.690Z,16.76
2018-06-25T02:31:06.705Z,16.71
2018-06-25T02:32:06.439Z,16.71
2018-06-25T02:33:06.919Z,16.74
2018-06-25T02:34:06.688Z,16.66
2018-06-25T02:35:06.433Z,16.68
2018-06-25T02:36:06.755Z,16.66
2018-06-25T02:37:06.711Z,16.65
2018-06-25T02:38:06.425Z,16.66
2018-06-25T02:39:06.943Z,16.64
2018-06-25T02:40:07.009Z,16.61
2018-06-25T02:41:06.683Z,16.53
2018-06-25T02:42:06.738Z,16.57
2018-06-25T02:43:06.951Z,16.57
2018-06-25T02:44:06.677Z,16.56
2018-06-25T02:45:06.994Z,16.53
2018-06-25T02:46:06.460Z,16.65
2018-06-25T02:47:06.738Z,16.54
2018-06-25T02:48:06.953Z,16.51
2018-06-25T02:49:06.714Z,16.54
2018-06-25T02:50:06.459Z,16.64
2018-06-25T02:51:06.942Z,16.65
2018-06-25T02:52:06.703Z,16.65
2018-06-25T02:53:06.680Z,16.6
2018-06-25T02:54:06.932Z,16.57
2018-06-25T02:55:06.692Z,16.61
2018-06-25T02:56:06.423Z,16.54
2018-06-25T02:57:06.680Z,16.58
2018-06-25T02:58:06.436Z,16.57
2018-06-25T02:59:06.765Z,16.57
2018-06-25T03:00:06.680Z,16.61
2018-06-25T03:01:06.922Z,16.54
2018-06-25T03:02:06.938Z,16.6
2018-06-25T03:03:06.682Z,16.65
2018-06-25T03:04:06.926Z,16.58
2018-06-25T03:05:06.952Z,16.54
2018-06-25T03:06:06.680Z,16.54
2018-06-25T03:07:06.409Z,16.58
2018-06-25T03:08:06.807Z,16.58
2018-06-25T03:09:07.508Z,16.6
2018-06-25T03:10:06.713Z,16.56
2018-06-25T03:11:06.664Z,16.65
2018-06-25T03:12:06.927Z,16.57
2018-06-25T03:13:07.145Z,16.58
2018-06-25T03:14:06.664Z,16.68
2018-06-25T03:15:06.672Z,16.66
2018-06-25T03:16:06.677Z,16.64
2018-06-25T03:17:06.655Z,16.56
2018-06-25T03:18:06.436Z,16.58
2018-06-25T03:19:06.972Z,16.51
2018-06-25T03:20:06.906Z,16.54
2018-06-25T03:21:06.691Z,16.5
2018-06-25T03:22:06.663Z,16.41
2018-06-25T03:23:06.663Z,16.43
2018-06-25T03:24:06.941Z,16.41
2018-06-25T03:25:06.398Z,16.39
2018-06-25T03:26:06.398Z,16.35
2018-06-25T03:27:06.407Z,16.41
2018-06-25T03:28:06.402Z,16.42
2018-06-25T03:29:06.651Z,16.38
2018-06-25T03:30:06.910Z,16.49
2018-06-25T03:31:06.658Z,16.54
2018-06-25T03:32:06.927Z,16.49
2018-06-25T03:33:06.903Z,16.38
2018-06-25T03:34:06.640Z,16.51
2018-06-25T03:35:06.645Z,16.43
2018-06-25T03:36:06.645Z,16.43
2018-06-25T03:37:06.905Z,16.49
2018-06-25T03:38:06.894Z,16.5
2018-06-25T03:39:06.653Z,16.49
2018-06-25T03:40:06.902Z,16.42
2018-06-25T03:41:06.890Z,16.42
2018-06-25T03:42:06.396Z,16.41
2018-06-25T03:43:06.894Z,16.38
2018-06-25T03:44:06.646Z,16.42
2018-06-25T03:45:06.894Z,16.38
2018-06-25T03:46:06.920Z,16.39
2018-06-25T03:47:06.680Z,16.38
2018-06-25T03:48:06.889Z,16.41
2018-06-25T03:49:06.635Z,16.36
2018-06-25T03:50:06.649Z,16.36
2018-06-25T03:51:06.893Z,16.38
2018-06-25T03:52:06.629Z,16.39
2018-06-25T03:53:06.891Z,16.35
2018-06-25T03:54:06.654Z,16.38
2018-06-25T03:55:06.637Z,16.28
2018-06-25T03:56:06.900Z,16.31
2018-06-25T03:57:06.906Z,16.32
2018-06-25T03:58:06.900Z,16.36
2018-06-25T03:59:06.890Z,16.38
2018-06-25T04:00:06.877Z,16.39
2018-06-25T04:01:07.062Z,16.49
2018-06-25T04:02:06.632Z,16.54
2018-06-25T04:03:06.898Z,16.5
2018-06-25T04:04:06.365Z,16.54
2018-06-25T04:05:06.880Z,16.51
2018-06-25T04:06:06.631Z,16.5
2018-06-25T04:07:06.880Z,16.53
2018-06-25T04:08:06.884Z,16.42
2018-06-25T04:09:06.874Z,16.46
2018-06-25T04:10:06.699Z,16.38
2018-06-25T04:11:06.880Z,16.46
2018-06-25T04:12:06.947Z,16.36
2018-06-25T04:13:06.916Z,16.43
2018-06-25T04:14:06.390Z,16.36
2018-06-25T04:15:06.648Z,16.33
2018-06-25T04:16:06.649Z,16.32
2018-06-25T04:17:06.871Z,16.38
2018-06-25T04:18:06.623Z,16.36
2018-06-25T04:19:06.644Z,16.26
2018-06-25T04:20:06.870Z,16.31
2018-06-25T04:21:06.630Z,16.2
2018-06-25T04:22:06.881Z,16.24
2018-06-25T04:23:06.618Z,16.35
2018-06-25T04:24:06.364Z,16.33
2018-06-25T04:25:06.885Z,16.43
2018-06-25T04:26:06.679Z,16.43
2018-06-25T04:27:06.398Z,16.53
2018-06-25T04:28:06.642Z,16.64
2018-06-25T04:29:06.891Z,16.57
2018-06-25T04:30:06.606Z,16.56
2018-06-25T04:31:06.632Z,16.64
2018-06-25T04:32:06.613Z,16.57
2018-06-25T04:33:06.656Z,16.6
2018-06-25T04:34:06.357Z,16.66
2018-06-25T04:35:06.652Z,16.75
2018-06-25T04:36:06.900Z,16.72
2018-06-25T04:37:06.360Z,16.76
2018-06-25T04:38:06.882Z,16.72
2018-06-25T04:39:06.883Z,16.84
2018-06-25T04:40:06.606Z,16.83
2018-06-25T04:41:06.367Z,16.87
2018-06-25T04:42:06.608Z,16.93
2018-06-25T04:43:06.360Z,16.87
2018-06-25T04:44:06.650Z,16.74
2018-06-25T04:45:06.362Z,16.68
2018-06-25T04:46:06.863Z,16.71
2018-06-25T04:47:06.870Z,16.72
2018-06-25T04:48:06.858Z,16.69
2018-06-25T04:49:06.861Z,16.75
2018-06-25T04:50:06.616Z,16.75
2018-06-25T04:51:06.877Z,16.75
2018-06-25T04:52:06.863Z,16.74
2018-06-25T04:53:06.363Z,16.81
2018-06-25T04:54:06.614Z,16.86
2018-06-25T04:55:06.357Z,16.89
2018-06-25T04:56:06.360Z,16.71
2018-06-25T04:57:06.875Z,16.76
2018-06-25T04:58:06.356Z,16.69
2018-06-25T04:59:06.609Z,16.68
2018-06-25T05:00:06.877Z,16.65
2018-06-25T05:01:06.702Z,16.56
2018-06-25T05:02:06.355Z,16.61
2018-06-25T05:03:06.354Z,16.57
2018-06-25T05:04:06.623Z,16.72
2018-06-25T05:05:06.361Z,16.69
2018-06-25T05:06:06.635Z,16.74
2018-06-25T05:07:06.353Z,16.74
2018-06-25T05:08:06.608Z,16.87
2018-06-25T05:09:06.361Z,16.83
2018-06-25T05:10:06.617Z,16.9
2018-06-25T05:11:06.649Z,17.04
2018-06-25T05:12:06.620Z,17.06
2018-06-25T05:13:06.363Z,17.2
2018-06-25T05:14:06.606Z,17.22
2018-06-25T05:15:06.606Z,17.33
2018-06-25T05:16:06.859Z,17.31
2018-06-25T05:17:06.361Z,17.48
2018-06-25T05:18:06.606Z,17.59
2018-06-25T05:19:06.864Z,17.54
2018-06-25T05:20:06.357Z,17.57
2018-06-25T05:21:06.356Z,17.42
2018-06-25T05:22:06.593Z,17.46
2018-06-25T05:23:06.606Z,17.41
2018-06-25T05:24:06.613Z,17.38
2018-06-25T05:25:06.610Z,17.39
2018-06-25T05:26:06.687Z,17.42
2018-06-25T05:27:06.353Z,17.33
2018-06-25T05:28:06.620Z,17.33
2018-06-25T05:29:08.586Z,17.42
2018-06-25T05:30:06.629Z,17.36
2018-06-25T05:31:06.879Z,17.34
2018-06-25T05:32:06.366Z,17.26
2018-06-25T05:33:06.635Z,17.23
2018-06-25T05:34:06.385Z,17.2
2018-06-25T05:35:06.388Z,17.22
2018-06-25T05:36:06.874Z,17.2
2018-06-25T05:37:06.385Z,17.22
2018-06-25T05:38:06.697Z,17.31
2018-06-25T05:39:06.615Z,17.19
2018-06-25T05:40:06.666Z,17.24
2018-06-25T05:41:06.873Z,17.27
2018-06-25T05:42:06.627Z,17.2
2018-06-25T05:43:06.853Z,17.22
2018-06-25T05:44:06.614Z,17.16
2018-06-25T05:45:06.871Z,17.16
2018-06-25T05:46:06.857Z,17.11
2018-06-25T05:47:06.382Z,17.09
2018-06-25T05:48:06.375Z,17.06
2018-06-25T05:49:06.393Z,17.11
2018-06-25T05:50:06.638Z,17.02
2018-06-25T05:51:06.380Z,17.02
2018-06-25T05:52:06.655Z,17.06
2018-06-25T05:53:06.385Z,17.09
2018-06-25T05:54:06.864Z,17.16
2018-06-25T05:55:06.394Z,17.22
2018-06-25T05:56:06.643Z,17.15
2018-06-25T05:57:06.684Z,17.24
2018-06-25T05:58:06.404Z,17.26
2018-06-25T05:59:07.076Z,17.19
2018-06-25T06:00:06.411Z,17.15
2018-06-25T06:01:06.360Z,17.16
2018-06-25T06:02:06.392Z,17.19
2018-06-25T06:03:06.620Z,17.22
2018-06-25T06:04:06.872Z,17.27
2018-06-25T06:05:06.884Z,17.36
2018-06-25T06:06:06.869Z,17.31
2018-06-25T06:07:06.403Z,17.41
2018-06-25T06:08:06.362Z,17.54
2018-06-25T06:10:06.615Z,17.71
2018-06-25T06:11:06.630Z,17.74
2018-06-25T06:12:06.670Z,17.76
2018-06-25T06:13:06.912Z,17.8
2018-06-25T06:22:45.611Z,18.16
2018-06-25T06:23:45.609Z,18.08
2018-06-25T06:24:45.334Z,18.13
2018-06-25T06:25:45.772Z,18.13
2018-06-25T06:26:45.368Z,18.18
2018-06-25T06:27:45.597Z,17.98
2018-06-25T06:28:45.596Z,18.1
2018-06-25T06:29:45.343Z,18.18
2018-06-25T06:30:45.585Z,18.18
2018-06-25T06:31:45.096Z,18.18
2018-06-25T06:32:45.092Z,18.11
2018-06-25T06:33:45.347Z,18.07
2018-06-25T06:34:45.099Z,18.15
2018-06-25T06:35:45.338Z,18.07
2018-06-25T06:36:45.568Z,18.13
2018-06-25T06:37:45.352Z,18.15
2018-06-25T06:38:45.789Z,18.19
2018-06-25T06:39:45.396Z,18.26
2018-06-25T06:40:45.379Z,18.23
2018-06-25T06:41:45.602Z,18.35
2018-06-25T06:42:45.107Z,18.28
2018-06-25T06:43:45.377Z,18.47
2018-06-25T06:44:45.586Z,18.66
2018-06-25T06:45:45.611Z,18.68
2018-06-25T06:46:45.091Z,18.56
2018-06-25T06:47:45.752Z,18.63
2018-06-25T06:48:45.405Z,18.63
2018-06-25T06:49:45.582Z,18.52
2018-06-25T06:50:45.341Z,18.63
2018-06-25T06:51:45.585Z,18.55
2018-06-25T06:52:45.589Z,18.6
2018-06-25T06:53:45.366Z,18.55
2018-06-25T06:54:45.082Z,18.71
2018-06-25T06:55:45.347Z,18.74
2018-06-25T06:56:45.625Z,18.74
2018-06-25T06:57:45.820Z,18.88
2018-06-25T06:58:45.112Z,18.84
2018-06-25T06:59:45.692Z,18.81
2018-06-25T07:00:45.361Z,18.77
2018-06-25T07:01:45.450Z,18.71
2018-06-25T07:02:45.376Z,18.7
2018-06-25T07:03:45.609Z,18.75
2018-06-25T07:04:45.768Z,18.66
2018-06-25T07:05:45.408Z,18.59
2018-06-25T07:06:45.629Z,18.63
2018-06-25T07:07:45.383Z,18.56
2018-06-25T07:08:45.404Z,18.68
2018-06-25T07:09:45.609Z,18.84
2018-06-25T07:10:45.633Z,18.75
2018-06-25T07:11:45.628Z,18.71
2018-06-25T07:12:45.165Z,18.55
2018-06-25T07:13:45.646Z,18.43
2018-06-25T07:14:45.404Z,18.34
2018-06-25T07:15:45.635Z,18.4
2018-06-25T07:16:45.618Z,18.35
2018-06-25T07:17:45.726Z,18.47
2018-06-25T07:18:45.423Z,18.45
2018-06-25T07:19:45.156Z,18.5
2018-06-25T07:20:45.812Z,18.71
2018-06-25T07:21:45.645Z,18.65
2018-06-25T07:22:45.647Z,18.84
2018-06-25T07:23:45.425Z,18.71
2018-06-25T07:24:45.170Z,18.74
2018-06-25T07:25:45.641Z,18.7
2018-06-25T07:26:45.696Z,18.77
2018-06-25T07:27:45.394Z,18.81
2018-06-25T07:28:45.719Z,18.89
2018-06-25T07:29:45.734Z,18.98
2018-06-25T07:30:45.652Z,18.93
2018-06-25T07:31:45.443Z,19.04
2018-06-25T07:32:45.660Z,19.16
2018-06-25T07:33:45.658Z,19.22
2018-06-25T07:34:45.651Z,19.14
2018-06-25T07:35:46.194Z,19.11
2018-06-25T07:36:45.438Z,19.12
2018-06-25T07:37:45.678Z,19.07
2018-06-25T07:38:45.418Z,18.86
2018-06-25T07:39:45.430Z,18.63
2018-06-25T07:40:45.421Z,18.59
2018-06-25T07:41:45.445Z,18.4
2018-06-25T07:42:45.202Z,18.45
2018-06-25T07:43:45.426Z,18.44
2018-06-25T07:44:45.441Z,18.43
2018-06-25T07:45:45.521Z,18.49
2018-06-25T07:46:45.691Z,18.4
2018-06-25T07:47:45.488Z,18.33
2018-06-25T07:48:45.686Z,18.26
2018-06-25T07:49:45.710Z,18.33
2018-06-25T07:50:45.752Z,18.31
2018-06-25T07:51:45.439Z,18.31
2018-06-25T07:52:46.145Z,18.4
2018-06-25T07:53:45.933Z,18.35
2018-06-25T07:54:45.664Z,18.49
2018-06-25T07:55:45.512Z,18.38
2018-06-25T07:56:45.735Z,18.33
2018-06-25T07:57:45.521Z,18.49
2018-06-25T07:58:45.283Z,18.56
2018-06-25T07:59:46.115Z,18.45
2018-06-25T08:00:45.705Z,18.38
2018-06-25T08:01:45.699Z,18.47
2018-06-25T08:02:45.567Z,18.47
2018-06-25T08:03:46.040Z,18.37
2018-06-25T08:04:45.522Z,18.49
2018-06-25T08:05:45.727Z,18.53
2018-06-25T08:06:45.485Z,18.5
2018-06-25T08:07:45.758Z,18.44
2018-06-25T08:08:45.742Z,18.53
2018-06-25T08:09:45.776Z,18.44
2018-06-25T08:10:45.471Z,18.55
2018-06-25T08:11:45.708Z,18.49
2018-06-25T08:12:45.726Z,18.43
2018-06-25T08:13:45.251Z,18.44
2018-06-25T08:14:45.461Z,18.55
2018-06-25T08:15:45.492Z,18.34
2018-06-25T08:16:45.381Z,18.35
2018-06-25T08:17:45.244Z,18.33
2018-06-25T08:18:45.212Z,18.25
2018-06-25T08:19:45.574Z,18.29
2018-06-25T08:20:45.943Z,18.47
2018-06-25T08:21:45.804Z,18.4
2018-06-25T08:22:45.926Z,18.4
2018-06-25T08:23:45.804Z,18.35
2018-06-25T08:24:46.049Z,18.31
2018-06-25T08:25:45.634Z,18.18
2018-06-25T08:26:45.768Z,18.01
2018-06-25T08:27:45.524Z,18.07
2018-06-25T08:28:45.957Z,18.08
2018-06-25T08:29:46.353Z,18.18
2018-06-25T08:30:45.851Z,18.19
2018-06-25T08:31:46.142Z,18.29
2018-06-25T08:32:45.542Z,18.31
2018-06-25T08:33:45.604Z,18.45
2018-06-25T08:34:45.763Z,18.43
2018-06-25T08:35:45.528Z,18.29
2018-06-25T08:36:45.812Z,18.33
2018-06-25T08:37:45.345Z,18.38
2018-06-25T08:38:45.594Z,18.53
2018-06-25T08:39:46.031Z,18.68
2018-06-25T08:40:45.535Z,18.81
2018-06-25T08:41:45.771Z,19.02
2018-06-25T08:42:45.687Z,19.11
2018-06-25T08:43:45.787Z,19.04
2018-06-25T08:44:45.889Z,18.9
2018-06-25T08:45:45.785Z,18.84
2018-06-25T08:46:45.761Z,18.68
2018-06-25T08:47:45.790Z,18.59
2018-06-25T08:48:46.199Z,18.62
2018-06-25T08:49:45.543Z,18.75
2018-06-25T08:50:45.796Z,18.98
2018-06-25T08:51:45.663Z,19.07
2018-06-25T08:52:45.511Z,19.12
2018-06-25T08:53:45.530Z,19.16
2018-06-25T08:54:45.742Z,19.19
2018-06-25T08:55:45.783Z,19.34
2018-06-25T08:56:45.579Z,19.47
2018-06-25T08:57:45.778Z,19.62
2018-06-25T08:58:45.597Z,19.84
2018-06-25T08:59:45.552Z,19.79
2018-06-25T09:00:45.745Z,19.76
2018-06-25T09:01:45.600Z,19.89
2018-06-25T09:02:45.786Z,19.94
2018-06-25T09:03:45.553Z,20.18
2018-06-25T09:04:45.556Z,20.29
2018-06-25T09:05:45.863Z,20.22
2018-06-25T09:06:45.557Z,20.26
2018-06-25T09:07:45.559Z,20.31
2018-06-25T09:08:45.577Z,20.41
2018-06-25T09:09:46.102Z,20.59
2018-06-25T09:10:45.853Z,20.56
2018-06-25T09:11:45.563Z,20.41
2018-06-25T09:12:45.670Z,20.4
2018-06-25T09:13:45.823Z,20.4
2018-06-25T09:14:45.834Z,20.28
2018-06-25T09:15:45.575Z,20.31
2018-06-25T09:16:45.624Z,20.29
2018-06-25T09:17:45.600Z,20.31
2018-06-25T09:18:45.589Z,20.41
2018-06-25T09:19:45.847Z,20.43
2018-06-25T09:20:45.603Z,20.48
2018-06-25T09:21:45.846Z,20.56
2018-06-25T09:22:45.843Z,20.78
2018-06-25T09:23:45.377Z,20.85
2018-06-25T09:24:45.374Z,21.11
2018-06-25T09:25:45.913Z,21.37
2018-06-25T09:26:45.612Z,21.67
2018-06-25T09:27:46.191Z,21.98
2018-06-25T09:28:45.662Z,22.11
2018-06-25T09:29:45.396Z,22.33
2018-06-25T09:30:45.845Z,22.44
2018-06-25T09:31:45.889Z,22.53
2018-06-25T09:32:45.638Z,22.68
2018-06-25T09:33:45.882Z,22.78
2018-06-25T09:34:45.641Z,22.68
2018-06-25T09:35:45.401Z,22.65
2018-06-25T09:36:45.892Z,22.65
2018-06-25T09:37:45.413Z,22.6
2018-06-25T09:38:45.657Z,22.25
2018-06-25T09:39:45.919Z,22.08
2018-06-25T09:40:45.717Z,21.88
2018-06-25T09:41:46.347Z,21.82
2018-06-25T09:42:45.693Z,21.91
2018-06-25T09:43:45.679Z,21.96
2018-06-25T09:44:45.696Z,22.08
2018-06-25T09:45:45.956Z,22.1
2018-06-25T09:46:45.939Z,22.23
2018-06-25T09:47:45.432Z,22.45
2018-06-25T09:48:45.743Z,22.44
2018-06-25T09:49:45.707Z,22.45
2018-06-25T09:50:45.948Z,22.13
2018-06-25T09:51:45.952Z,21.77
2018-06-25T09:52:45.705Z,21.48
2018-06-25T09:53:45.724Z,21.36
2018-06-25T09:54:46.086Z,21.21
2018-06-25T09:55:45.982Z,21.12
2018-06-25T09:56:45.474Z,20.87
2018-06-25T09:57:45.758Z,20.75
2018-06-25T09:58:45.751Z,20.77
2018-06-25T09:59:46.004Z,20.85
2018-06-25T10:00:45.750Z,20.95
2018-06-25T10:01:46.007Z,21.06
2018-06-25T10:02:46.021Z,21.3
2018-06-25T10:03:46.157Z,21.42
2018-06-25T10:04:45.546Z,21.48
2018-06-25T10:05:45.780Z,21.67
2018-06-25T10:06:45.558Z,21.88
2018-06-25T10:07:45.518Z,22.14
2018-06-25T10:08:46.052Z,22.11
2018-06-25T10:09:45.783Z,21.89
2018-06-25T10:10:46.175Z,21.89
2018-06-25T10:11:46.041Z,21.85
2018-06-25T10:12:45.788Z,21.57
2018-06-25T10:13:45.791Z,21.43
2018-06-25T10:14:46.070Z,21.32
2018-06-25T10:15:45.982Z,21.35
2018-06-25T10:16:45.898Z,21.27
2018-06-25T10:17:45.809Z,21.12
2018-06-25T10:18:46.064Z,21.24
2018-06-25T10:19:46.080Z,21.21
2018-06-25T10:20:46.322Z,21.29
2018-06-25T10:21:46.112Z,21.39
2018-06-25T10:53:27.214Z,23.44
2018-06-25T10:54:27.464Z,23.34
2018-06-25T10:55:27.033Z,23.32
2018-06-25T10:56:27.217Z,23.15
2018-06-25T10:57:27.271Z,23.28
2018-06-25T10:58:27.541Z,23.48
2018-06-25T10:59:27.857Z,23.54
2018-06-25T11:00:27.559Z,23.58
2018-06-25T11:01:27.255Z,23.65
2018-06-25T11:02:27.006Z,23.71
2018-06-25T11:03:27.221Z,23.8
2018-06-25T11:04:27.494Z,24.01
2018-06-25T11:05:26.993Z,23.99
2018-06-25T11:06:27.484Z,24.01
2018-06-25T11:07:28.079Z,24.08
2018-06-25T11:08:27.485Z,24.28
2018-06-25T11:09:27.264Z,24.01
2018-06-25T11:10:27.533Z,23.96
2018-06-25T11:11:27.276Z,23.76
2018-06-25T11:12:27.547Z,23.65
2018-06-25T11:13:27.602Z,23.37
2018-06-25T11:14:27.559Z,22.94
2018-06-25T11:15:27.584Z,22.88
2018-06-25T11:16:27.292Z,22.84
2018-06-25T11:17:27.554Z,22.88
2018-06-25T11:18:27.050Z,22.98
2018-06-25T11:19:27.569Z,22.87
2018-06-25T11:20:27.647Z,22.8
2018-06-25T11:21:27.559Z,22.65
2018-06-25T11:22:27.300Z,22.41
2018-06-25T11:23:27.309Z,22.17
2018-06-25T11:24:27.425Z,22.07
2018-06-25T11:25:27.157Z,22.02
2018-06-25T11:26:27.380Z,22.11
2018-06-25T11:27:27.919Z,22.2
2018-06-25T11:28:27.636Z,22.26
2018-06-25T11:29:27.135Z,22.5
2018-06-25T11:30:27.362Z,22.69
2018-06-25T11:31:27.643Z,22.83
2018-06-25T11:32:27.626Z,22.84
2018-06-25T11:33:27.651Z,22.98
2018-06-25T11:34:27.647Z,22.96
2018-06-25T11:35:28.033Z,23.09
2018-06-25T11:36:27.385Z,23.21
2018-06-25T11:37:27.391Z,23.13
2018-06-25T11:38:27.644Z,23.02
2018-06-25T11:39:27.627Z,22.96
2018-06-25T11:40:27.714Z,22.8
2018-06-25T11:41:27.653Z,22.85
2018-06-25T11:42:27.639Z,23.15
2018-06-25T11:43:27.663Z,23.47
2018-06-25T11:44:27.442Z,23.8
2018-06-25T11:45:27.462Z,23.92
2018-06-25T11:46:27.644Z,23.83
2018-06-25T11:47:27.661Z,23.71
2018-06-25T11:48:27.447Z,23.41
2018-06-25T11:49:27.496Z,23.13
2018-06-25T11:50:27.428Z,23.15
2018-06-25T11:51:27.664Z,22.96
2018-06-25T11:52:27.426Z,22.88
2018-06-25T11:53:27.446Z,22.73
2018-06-25T11:54:27.434Z,22.62
2018-06-25T11:55:27.587Z,22.72
2018-06-25T11:56:27.480Z,22.98
2018-06-25T11:57:27.448Z,23.09
2018-06-25T11:58:27.712Z,23.18
2018-06-25T11:59:27.701Z,23.12
2018-06-25T12:00:27.461Z,23.23
2018-06-25T12:01:27.755Z,23.2
2018-06-25T12:02:27.882Z,23.15
2018-06-25T12:03:28.070Z,22.93
2018-06-25T12:04:27.486Z,22.99
2018-06-25T12:05:27.555Z,23.05
2018-06-25T12:06:27.490Z,23.17
2018-06-25T12:07:27.760Z,23.15
2018-06-25T12:08:27.787Z,23.12
2018-06-25T12:09:27.502Z,23.02
2018-06-25T12:10:27.503Z,22.99
2018-06-25T12:11:27.767Z,23.03
2018-06-25T12:12:27.981Z,23
2018-06-25T12:13:27.759Z,22.94
2018-06-25T12:14:27.771Z,22.83
2018-06-25T12:15:27.317Z,22.75
2018-06-25T12:16:27.771Z,22.75
2018-06-25T12:17:27.887Z,22.76
2018-06-25T12:18:27.555Z,22.72
2018-06-25T12:19:27.773Z,22.73
2018-06-25T12:20:27.849Z,22.76
2018-06-25T12:21:27.541Z,22.8
2018-06-25T12:22:27.560Z,22.85
2018-06-25T12:23:27.840Z,22.84
2018-06-25T12:24:27.553Z,22.83
2018-06-25T12:25:27.554Z,22.87
2018-06-25T12:26:27.549Z,22.99
2018-06-25T12:27:27.815Z,23.17
2018-06-25T12:28:27.567Z,23.21
2018-06-25T12:29:27.856Z,23.41
2018-06-25T12:30:27.909Z,23.51
2018-06-25T12:31:27.829Z,23.55
2018-06-25T12:32:27.589Z,23.47
2018-06-25T12:33:27.835Z,23.39
2018-06-25T12:34:27.852Z,23.34
2018-06-25T12:35:27.585Z,23.36
2018-06-25T12:36:27.848Z,23.41
2018-06-25T12:37:27.593Z,23.58
2018-06-25T12:38:27.608Z,23.8
2018-06-25T12:39:27.868Z,23.95
2018-06-25T12:40:27.939Z,23.86
2018-06-25T12:41:27.671Z,24.01
2018-06-25T12:42:27.628Z,24.02
2018-06-25T12:43:27.648Z,24.11
2018-06-25T12:44:27.903Z,24.2
2018-06-25T12:45:27.883Z,24.33
2018-06-25T12:46:27.656Z,24.54
2018-06-25T12:47:27.646Z,24.6
2018-06-25T12:48:28.922Z,24.74
2018-06-25T12:49:27.967Z,24.8
2018-06-25T12:50:27.956Z,24.84
2018-06-25T12:51:27.404Z,24.95
2018-06-25T12:52:27.942Z,24.77
2018-06-25T12:53:27.685Z,24.35
2018-06-25T12:54:27.937Z,23.98
2018-06-25T12:55:27.936Z,23.63
2018-06-25T12:56:27.701Z,23.37
2018-06-25T12:57:27.954Z,23.1
2018-06-25T12:58:27.437Z,23
2018-06-25T12:59:27.689Z,22.76
2018-06-25T13:00:28.048Z,22.69
2018-06-25T13:01:27.735Z,22.62
2018-06-25T13:02:27.982Z,22.68
2018-06-25T13:03:27.711Z,22.75
2018-06-25T13:04:27.985Z,22.88
2018-06-25T13:05:27.725Z,22.76
2018-06-25T13:06:28.008Z,22.78
2018-06-25T13:07:27.473Z,22.75
2018-06-25T13:08:27.731Z,22.76
2018-06-25T13:09:27.742Z,22.78
2018-06-25T13:10:28.072Z,22.85
2018-06-25T13:11:27.742Z,23
2018-06-25T13:12:27.516Z,23.06
2018-06-25T13:13:27.521Z,22.99
2018-06-25T13:14:28.008Z,23
2018-06-25T13:15:27.520Z,23.02
2018-06-25T13:16:27.769Z,23.06
2018-06-25T13:17:28.033Z,23.1
2018-06-25T13:18:27.795Z,23.2
2018-06-25T13:19:28.078Z,23.51
2018-06-25T13:20:27.849Z,23.66
2018-06-25T13:21:27.796Z,23.71
2018-06-25T13:22:28.033Z,23.66
2018-06-25T13:23:27.795Z,23.65
2018-06-25T13:24:27.538Z,23.65
2018-06-25T13:25:27.862Z,23.44
2018-06-25T13:26:27.544Z,23.47
2018-06-25T13:27:27.803Z,23.43
2018-06-25T13:28:27.804Z,23.48
2018-06-25T13:29:27.829Z,23.63
2018-06-25T13:30:28.120Z,23.51
2018-06-25T13:31:27.831Z,23.5
2018-06-25T13:32:28.089Z,23.51
2018-06-25T13:33:28.091Z,23.65
2018-06-25T13:34:27.577Z,23.68
2018-06-25T13:35:28.018Z,23.91